Aviation Digital Data Service (ADDS)

Output produced by METARs form (0856 UTC 18 February 2019)
found at http://www.aviationweather.gov/metar/data/
 
METAR text: WIMM 180800Z 35009KT 9999 SCT019 31/22 Q1009 NOSIG
Conditions at: WIMM (MEDAN/POLONIA (M, ID) observed 0800 UTC 18 February 2019
Temperature: 31.0°C (88°F)
Dewpoint: 22.0°C (72°F) [RH = 59%]
Pressure (altimeter): 29.79 inches Hg (1009.0 mb)
Winds: from the N (350 degrees) at 10 MPH (9 knots; 4.6 m/s)
Visibility: 6 or more miles (10+ km)
Ceiling: at least 12,000 feet AGL
Clouds: scattered clouds at 1900 feet AGL
Weather: no significant weather observed at this time

METAR text: WIMM 180600Z 34007KT 9999 SCT018 31/21 Q1011 NOSIG
Conditions at: WIMM (MEDAN/POLONIA (M, ID) observed 0600 UTC 18 February 2019
Temperature: 31.0°C (88°F)
Dewpoint: 21.0°C (70°F) [RH = 55%]
Pressure (altimeter): 29.85 inches Hg (1011.0 mb)
Winds: from the NNW (340 degrees) at 8 MPH (7 knots; 3.6 m/s)
Visibility: 6 or more miles (10+ km)
Ceiling: at least 12,000 feet AGL
Clouds: scattered clouds at 1800 feet AGL
Weather: no significant weather observed at this time

METAR text: WIMM 180000Z 22005KT 6000 SCT017 23/22 Q1010 NOSIG
Conditions at: WIMM (MEDAN/POLONIA (M, ID) observed 0000 UTC 18 February 2019
Temperature: 23.0°C (73°F)
Dewpoint: 22.0°C (72°F) [RH = 94%]
Pressure (altimeter): 29.82 inches Hg (1010.0 mb)
Winds: from the SW (220 degrees) at 6 MPH (5 knots; 2.6 m/s)
Visibility: 4 miles ( 6 km)
Ceiling: at least 12,000 feet AGL
Clouds: scattered clouds at 1700 feet AGL
Weather: no significant weather observed at this time

METAR text: WIMM 172300Z 22003KT 6000 SCT017 23/23 Q1009 NOSIG
Conditions at: WIMM (MEDAN/POLONIA (M, ID) observed 2300 UTC 17 February 2019
Temperature: 23.0°C (73°F)
Dewpoint: 23.0°C (73°F) [RH = 100%]
Pressure (altimeter): 29.79 inches Hg (1009.0 mb)
Winds: from the SW (220 degrees) at 3 MPH (3 knots; 1.5 m/s)
Visibility: 4 miles ( 6 km)
Ceiling: at least 12,000 feet AGL
Clouds: scattered clouds at 1700 feet AGL
Weather: no significant weather observed at this time

METAR text: WIMM 172200Z 22003KT 6000 SCT017 23/23 Q1009 NOSIG
Conditions at: WIMM (MEDAN/POLONIA (M, ID) observed 2200 UTC 17 February 2019
Temperature: 23.0°C (73°F)
Dewpoint: 23.0°C (73°F) [RH = 100%]
Pressure (altimeter): 29.79 inches Hg (1009.0 mb)
Winds: from the SW (220 degrees) at 3 MPH (3 knots; 1.5 m/s)
Visibility: 4 miles ( 6 km)
Ceiling: at least 12,000 feet AGL
Clouds: scattered clouds at 1700 feet AGL
Weather: no significant weather observed at this time

METAR text: WIMM 171800Z 21003KT 4000 -RA BKN017 23/23 Q1012 RETS NOSIG
Conditions at: WIMM (MEDAN/POLONIA (M, ID) observed 1800 UTC 17 February 2019
Temperature: 23.0°C (73°F)
Dewpoint: 23.0°C (73°F) [RH = 100%]
Pressure (altimeter): 29.88 inches Hg (1012.0 mb)
Winds: from the SSW (210 degrees) at 3 MPH (3 knots; 1.5 m/s)
Visibility: 2.49 miles (4.01 km)
Ceiling: 1700 feet AGL
Clouds: broken clouds at 1700 feet AGL
Weather: -RA  (light rain)

METAR text: WIMM 171600Z 27006KT 3000 -TSRA FEW016CB BKN017 23/23 Q1014 NOSIG RMK CB TO N
Conditions at: WIMM (MEDAN/POLONIA (M, ID) observed 1600 UTC 17 February 2019
Temperature: 23.0°C (73°F)
Dewpoint: 23.0°C (73°F) [RH = 100%]
Pressure (altimeter): 29.94 inches Hg (1014.0 mb)
Winds: from the W (270 degrees) at 7 MPH (6 knots; 3.1 m/s)
Visibility: 1.86 miles (2.99 km)
Ceiling: 1700 feet AGL
Clouds: few clouds at 1600 feet AGL
broken clouds at 1700 feet AGL
Weather: -TSRA  (light rain associated with thunderstorm(s))

METAR text: WIMM 171500Z 00000KT 3000 -TSRA FEW016CB BKN017 23/23 Q1014 NOSIG RMK CB TO N
Conditions at: WIMM (MEDAN/POLONIA (M, ID) observed 1500 UTC 17 February 2019
Temperature: 23.0°C (73°F)
Dewpoint: 23.0°C (73°F) [RH = 100%]
Pressure (altimeter): 29.94 inches Hg (1014.0 mb)
Winds: calm
Visibility: 1.86 miles (2.99 km)
Ceiling: 1700 feet AGL
Clouds: few clouds at 1600 feet AGL
broken clouds at 1700 feet AGL
Weather: -TSRA  (light rain associated with thunderstorm(s))

METAR text: WIMM 171430Z 31007KT 3000 -TSRA FEW016CB BKN017 23/23 Q1014 RMK CB TO N
Conditions at: WIMM (MEDAN/POLONIA (M, ID) observed 1430 UTC 17 February 2019
Temperature: 23.0°C (73°F)
Dewpoint: 23.0°C (73°F) [RH = 100%]
Pressure (altimeter): 29.94 inches Hg (1014.0 mb)
Winds: from the NW (310 degrees) at 8 MPH (7 knots; 3.6 m/s)
Visibility: 1.86 miles (2.99 km)
Ceiling: 1700 feet AGL
Clouds: few clouds at 1600 feet AGL
broken clouds at 1700 feet AGL
Weather: -TSRA  (light rain associated with thunderstorm(s))

METAR text: WIMM 171400Z 33005KT 3000 -TSRA FEW016CB BKN017 23/23 Q1013 RMK CB TO NW AND N
Conditions at: WIMM (MEDAN/POLONIA (M, ID) observed 1400 UTC 17 February 2019
Temperature: 23.0°C (73°F)
Dewpoint: 23.0°C (73°F) [RH = 100%]
Pressure (altimeter): 29.91 inches Hg (1013.0 mb)
Winds: from the NNW (330 degrees) at 6 MPH (5 knots; 2.6 m/s)
Visibility: 1.86 miles (2.99 km)
Ceiling: 1700 feet AGL
Clouds: few clouds at 1600 feet AGL
broken clouds at 1700 feet AGL
Weather: -TSRA  (light rain associated with thunderstorm(s))

METAR text: WIMM 171300Z 24016KT 3000 -TSRA FEW015CB BKN016 25/24 Q1011 TEMPO TL1400 3000 -TSRA RMK CB TO NW AND N
Conditions at: WIMM (MEDAN/POLONIA (M, ID) observed 1300 UTC 17 February 2019
Temperature: 25.0°C (77°F)
Dewpoint: 24.0°C (75°F) [RH = 94%]
Pressure (altimeter): 29.85 inches Hg (1011.0 mb)
Winds: from the WSW (240 degrees) at 18 MPH (16 knots; 8.2 m/s)
Visibility: 1.86 miles (2.99 km)
Ceiling: 1600 feet AGL
Clouds: few clouds at 1500 feet AGL
broken clouds at 1600 feet AGL
Weather: -TSRA  (light rain associated with thunderstorm(s))

METAR text: WIMM 171200Z 22004KT 4000 TS FEW016CB BKN017 27/25 Q1010 NOSIG RMK CB TO W
Conditions at: WIMM (MEDAN/POLONIA (M, ID) observed 1200 UTC 17 February 2019
Temperature: 27.0°C (81°F)
Dewpoint: 25.0°C (77°F) [RH = 89%]
Pressure (altimeter): 29.82 inches Hg (1010.0 mb)
Winds: from the SW (220 degrees) at 5 MPH (4 knots; 2.1 m/s)
Visibility: 2.49 miles (4.01 km)
Ceiling: 1700 feet AGL
Clouds: few clouds at 1600 feet AGL
broken clouds at 1700 feet AGL
Weather: TS  (thunderstorm)

METAR text: WIMM 171100Z 04004KT 340V070 8000 FEW016CB SCT017 28/24 Q1009 NOSIG RMK CB TO W
Conditions at: WIMM (MEDAN/POLONIA (M, ID) observed 1100 UTC 17 February 2019
Temperature: 28.0°C (82°F)
Dewpoint: 24.0°C (75°F) [RH = 79%]
Pressure (altimeter): 29.79 inches Hg (1009.0 mb)
Winds: from the NE (40 degrees) at 5 MPH (4 knots; 2.1 m/s)
Visibility: 5 miles ( 8 km)
Ceiling: at least 12,000 feet AGL
Clouds: few clouds at 1600 feet AGL
scattered clouds at 1700 feet AGL
Weather: no significant weather observed at this time

METAR text: WIMM 170800Z 36008KT 9999 FEW016CB SCT017 29/25 Q1008 NOSIG RMK CB TO W
Conditions at: WIMM (MEDAN/POLONIA (M, ID) observed 0800 UTC 17 February 2019
Temperature: 29.0°C (84°F)
Dewpoint: 25.0°C (77°F) [RH = 79%]
Pressure (altimeter): 29.76 inches Hg (1008.0 mb)
Winds: from the N (360 degrees) at 9 MPH (8 knots; 4.1 m/s)
Visibility: 6 or more miles (10+ km)
Ceiling: at least 12,000 feet AGL
Clouds: few clouds at 1600 feet AGL
scattered clouds at 1700 feet AGL
Weather: no significant weather observed at this time

METAR text: WIMM 170700Z 35008KT 320V020 9000 FEW016CB SCT017 29/25 Q1010 RMK RETS
Conditions at: WIMM (MEDAN/POLONIA (M, ID) observed 0700 UTC 17 February 2019
Temperature: 29.0°C (84°F)
Dewpoint: 25.0°C (77°F) [RH = 79%]
Pressure (altimeter): 29.82 inches Hg (1010.0 mb)
Winds: from the N (350 degrees) at 9 MPH (8 knots; 4.1 m/s)
Visibility: 6 miles ( 9 km)
Ceiling: at least 12,000 feet AGL
Clouds: few clouds at 1600 feet AGL
scattered clouds at 1700 feet AGL
Weather: no significant weather observed at this time

METAR text: WIMM 170500Z 34006KT 300V030 8000 BKN017 29/25 Q1012 NOSIG
Conditions at: WIMM (MEDAN/POLONIA (M, ID) observed 0500 UTC 17 February 2019
Temperature: 29.0°C (84°F)
Dewpoint: 25.0°C (77°F) [RH = 79%]
Pressure (altimeter): 29.88 inches Hg (1012.0 mb)
Winds: from the NNW (340 degrees) at 7 MPH (6 knots; 3.1 m/s)
Visibility: 5 miles ( 8 km)
Ceiling: 1700 feet AGL
Clouds: broken clouds at 1700 feet AGL
Weather: no significant weather observed at this time

METAR text: WIMM 170400Z 04009KT 9000 FEW016CB SCT017 28/24 Q1013 RMK RETS
Conditions at: WIMM (MEDAN/POLONIA (M, ID) observed 0400 UTC 17 February 2019
Temperature: 28.0°C (82°F)
Dewpoint: 24.0°C (75°F) [RH = 79%]
Pressure (altimeter): 29.91 inches Hg (1013.0 mb)
Winds: from the NE (40 degrees) at 10 MPH (9 knots; 4.6 m/s)
Visibility: 6 miles ( 9 km)
Ceiling: at least 12,000 feet AGL
Clouds: few clouds at 1600 feet AGL
scattered clouds at 1700 feet AGL
Weather: no significant weather observed at this time

METAR text: WIMM 170300Z 25004KT 4000 TS FEW016CB SCT017 28/25 Q1014 NOSIG RMK CB TO E
Conditions at: WIMM (MEDAN/POLONIA (M, ID) observed 0300 UTC 17 February 2019
Temperature: 28.0°C (82°F)
Dewpoint: 25.0°C (77°F) [RH = 84%]
Pressure (altimeter): 29.94 inches Hg (1014.0 mb)
Winds: from the WSW (250 degrees) at 5 MPH (4 knots; 2.1 m/s)
Visibility: 2.49 miles (4.01 km)
Ceiling: at least 12,000 feet AGL
Clouds: few clouds at 1600 feet AGL
scattered clouds at 1700 feet AGL
Weather: TS  (thunderstorm)

METAR text: WIMM 170200Z 21003KT 170V250 4000 BR FEW016CB SCT017 28/25 Q1013 NOSIG RMK CB TO E
Conditions at: WIMM (MEDAN/POLONIA (M, ID) observed 0200 UTC 17 February 2019
Temperature: 28.0°C (82°F)
Dewpoint: 25.0°C (77°F) [RH = 84%]
Pressure (altimeter): 29.91 inches Hg (1013.0 mb)
Winds: from the SSW (210 degrees) at 3 MPH (3 knots; 1.5 m/s)
Visibility: 2.49 miles (4.01 km)
Ceiling: at least 12,000 feet AGL
Clouds: few clouds at 1600 feet AGL
scattered clouds at 1700 feet AGL
Weather: BR  (mist)

METAR text: WIMM 170100Z 23003KT 130V250 1500 R05/1300 R23/1900 BR SCT017 26/25 Q1012 NOSIG
Conditions at: WIMM (MEDAN/POLONIA (M, ID) observed 0100 UTC 17 February 2019
Temperature: 26.0°C (79°F)
Dewpoint: 25.0°C (77°F) [RH = 94%]
Pressure (altimeter): 29.88 inches Hg (1012.0 mb)
Winds: from the SW (230 degrees) at 3 MPH (3 knots; 1.5 m/s)
Visibility: 0.93 miles (1.50 km)
Ceiling: at least 12,000 feet AGL
Clouds: scattered clouds at 1700 feet AGL
Weather: BR  (mist)

METAR text: WIMM 170030Z 00000KT 0900 R05/1000 R23/1200 FG BKN017 25/25 Q1012 NOSIG
Conditions at: WIMM (MEDAN/POLONIA (M, ID) observed 0030 UTC 17 February 2019
Temperature: 25.0°C (77°F)
Dewpoint: 25.0°C (77°F) [RH = 100%]
Pressure (altimeter): 29.88 inches Hg (1012.0 mb)
Winds: calm
Visibility: 0.56 miles (0.90 km)
Ceiling: 1700 feet AGL
Clouds: broken clouds at 1700 feet AGL
Weather: FG  (fog)

METAR text: WIMM 170000Z 00000KT 1000 R05/1400 R23/1600 BR VV005 25/25 Q1011 BECMG FM0130 TL0230 3500 HZ
Conditions at: WIMM (MEDAN/POLONIA (M, ID) observed 0000 UTC 17 February 2019
Temperature: 25.0°C (77°F)
Dewpoint: 25.0°C (77°F) [RH = 100%]
Pressure (altimeter): 29.85 inches Hg (1011.0 mb)
Winds: calm
Visibility: 0.62 miles (1.00 km)
Ceiling: indefinite ceiling with vertical visibility of 500 feet AGL
Clouds: obscured sky
Weather: BR  (mist)

METAR text: WIMM 162330Z 00000KT 2000 BR SCT018 25/25 Q1011 NOSIG
Conditions at: WIMM (MEDAN/POLONIA (M, ID) observed 2330 UTC 16 February 2019
Temperature: 25.0°C (77°F)
Dewpoint: 25.0°C (77°F) [RH = 100%]
Pressure (altimeter): 29.85 inches Hg (1011.0 mb)
Winds: calm
Visibility: 1.24 miles (2.00 km)
Ceiling: at least 12,000 feet AGL
Clouds: scattered clouds at 1800 feet AGL
Weather: BR  (mist)

METAR text: WIMM 162230Z 25002KT 2500 BR FEW018 25/25 Q1010 NOSIG
Conditions at: WIMM (MEDAN/POLONIA (M, ID) observed 2230 UTC 16 February 2019
Temperature: 25.0°C (77°F)
Dewpoint: 25.0°C (77°F) [RH = 100%]
Pressure (altimeter): 29.82 inches Hg (1010.0 mb)
Winds: from the WSW (250 degrees) at 2 MPH (2 knots; 1.0 m/s)
Visibility: 1.55 miles (2.49 km)
Ceiling: at least 12,000 feet AGL
Clouds: few clouds at 1800 feet AGL
Weather: BR  (mist)

METAR text: WIMM 162200Z 23003KT 2500 BR FEW018 25/25 Q1010 NOSIG
Conditions at: WIMM (MEDAN/POLONIA (M, ID) observed 2200 UTC 16 February 2019
Temperature: 25.0°C (77°F)
Dewpoint: 25.0°C (77°F) [RH = 100%]
Pressure (altimeter): 29.82 inches Hg (1010.0 mb)
Winds: from the SW (230 degrees) at 3 MPH (3 knots; 1.5 m/s)
Visibility: 1.55 miles (2.49 km)
Ceiling: at least 12,000 feet AGL
Clouds: few clouds at 1800 feet AGL
Weather: BR  (mist)

Forecast for: WIMM (MEDAN/POLONIA (M, ID)
Text: TAF WIMM 180500Z 1806/1906 03010KT 8000 SCT018
Forecast period: 0600 to 1000 UTC 18 February 2019
Forecast type: FROM: standard forecast or significant change
Winds: from the NNE (30 degrees) at 12 MPH (10 knots; 5.1 m/s)
Visibility: 5 miles (8 km)
Ceiling: at least 12,000 feet AGL
Clouds: scattered clouds at 1800 feet AGL
Weather: no significant weather forecast for this period
Text: BECMG 1810/1812 VRB05KT 5000 HZ FEW017CB SCT017
Forecast period: 1000 UTC 18 February 2019 to 0600 UTC 19 February 2019
Forecast type: BECOMING: Conditions expected to become as follows by 1200 UTC 18 February 2019
Winds: variable direction winds at 6 MPH (5 knots; 2.6 m/s)
Visibility: 3 miles (5 km)
Ceiling: at least 12,000 feet AGL
Clouds: few clouds at 1700 feet AGL
scattered clouds at 1700 feet AGL
Weather: HZ  (haze)
Text: TEMPO 1814/1818 -TSRA
Forecast period: 1400 to 1800 UTC 18 February 2019
Forecast type: TEMPORARY: The following changes expected for less than half the time period
Visibility: missing
Ceiling: unknown
Clouds: missing
Weather: -TSRA  (light rain associated with thunderstorm(s))